sensor_id;sensor_type;location;lat;lon;timestamp;P1;durP1;ratioP1;P2;durP2;ratioP2
56997;SDS011;42890;44.244;22.530;2023-04-15T00:01:29;20.30;;;17.80;;
56997;SDS011;42890;44.244;22.530;2023-04-15T00:03:58;44.05;;;36.63;;
56997;SDS011;42890;44.244;22.530;2023-04-15T00:06:24;67.20;;;55.60;;
56997;SDS011;42890;44.244;22.530;2023-04-15T00:08:50;67.75;;;54.60;;
56997;SDS011;42890;44.244;22.530;2023-04-15T00:11:17;155.23;;;82.90;;
56997;SDS011;42890;44.244;22.530;2023-04-15T00:13:44;150.50;;;76.05;;
56997;SDS011;42890;44.244;22.530;2023-04-15T00:16:10;169.27;;;83.93;;
56997;SDS011;42890;44.244;22.530;2023-04-15T00:18:36;119.72;;;59.53;;
56997;SDS011;42890;44.244;22.530;2023-04-15T00:21:03;136.57;;;62.17;;
56997;SDS011;42890;44.244;22.530;2023-04-15T00:23:29;66.38;;;47.50;;
56997;SDS011;42890;44.244;22.530;2023-04-15T00:25:56;103.72;;;54.38;;
56997;SDS011;42890;44.244;22.530;2023-04-15T00:28:22;61.90;;;33.40;;
56997;SDS011;42890;44.244;22.530;2023-04-15T00:30:48;13.00;;;11.15;;
56997;SDS011;42890;44.244;22.530;2023-04-15T00:33:15;13.55;;;11.02;;
56997;SDS011;42890;44.244;22.530;2023-04-15T00:35:41;13.20;;;10.88;;
56997;SDS011;42890;44.244;22.530;2023-04-15T00:38:07;18.80;;;16.48;;
56997;SDS011;42890;44.244;22.530;2023-04-15T00:40:34;15.85;;;14.15;;
56997;SDS011;42890;44.244;22.530;2023-04-15T00:43:00;16.02;;;13.48;;
56997;SDS011;42890;44.244;22.530;2023-04-15T00:45:27;13.38;;;12.05;;
56997;SDS011;42890;44.244;22.530;2023-04-15T00:47:53;12.43;;;11.02;;
56997;SDS011;42890;44.244;22.530;2023-04-15T00:50:20;12.68;;;11.48;;
56997;SDS011;42890;44.244;22.530;2023-04-15T00:52:46;12.75;;;11.55;;
56997;SDS011;42890;44.244;22.530;2023-04-15T00:55:12;12.70;;;11.45;;
56997;SDS011;42890;44.244;22.530;2023-04-15T00:57:38;11.88;;;10.63;;
56997;SDS011;42890;44.244;22.530;2023-04-15T01:00:05;11.93;;;10.65;;
56997;SDS011;42890;44.244;22.530;2023-04-15T01:02:33;14.80;;;11.88;;
56997;SDS011;42890;44.244;22.530;2023-04-15T01:04:59;11.95;;;10.65;;
56997;SDS011;42890;44.244;22.530;2023-04-15T01:07:25;14.18;;;12.73;;
56997;SDS011;42890;44.244;22.530;2023-04-15T01:09:52;14.45;;;12.05;;
56997;SDS011;42890;44.244;22.530;2023-04-15T01:12:18;19.10;;;17.00;;
56997;SDS011;42890;44.244;22.530;2023-04-15T01:14:45;21.95;;;19.65;;
56997;SDS011;42890;44.244;22.530;2023-04-15T01:17:11;28.88;;;22.92;;
56997;SDS011;42890;44.244;22.530;2023-04-15T01:19:37;40.40;;;27.23;;
56997;SDS011;42890;44.244;22.530;2023-04-15T01:22:04;50.38;;;38.90;;
56997;SDS011;42890;44.244;22.530;2023-04-15T01:24:30;87.55;;;54.38;;
56997;SDS011;42890;44.244;22.530;2023-04-15T01:26:58;70.35;;;52.45;;
56997;SDS011;42890;44.244;22.530;2023-04-15T01:29:24;102.88;;;64.47;;
56997;SDS011;42890;44.244;22.530;2023-04-15T01:31:51;61.35;;;45.92;;
56997;SDS011;42890;44.244;22.530;2023-04-15T01:34:18;67.00;;;45.63;;
56997;SDS011;42890;44.244;22.530;2023-04-15T01:36:47;38.92;;;28.55;;
56997;SDS011;42890;44.244;22.530;2023-04-15T01:39:13;52.80;;;39.42;;
56997;SDS011;42890;44.244;22.530;2023-04-15T01:41:40;48.90;;;38.80;;
56997;SDS011;42890;44.244;22.530;2023-04-15T01:44:06;53.80;;;42.78;;
56997;SDS011;42890;44.244;22.530;2023-04-15T01:46:32;36.67;;;31.02;;
56997;SDS011;42890;44.244;22.530;2023-04-15T01:48:59;27.23;;;21.15;;
56997;SDS011;42890;44.244;22.530;2023-04-15T01:51:25;18.77;;;16.77;;
56997;SDS011;42890;44.244;22.530;2023-04-15T01:53:52;23.48;;;20.98;;
56997;SDS011;42890;44.244;22.530;2023-04-15T01:56:21;25.98;;;21.08;;
56997;SDS011;42890;44.244;22.530;2023-04-15T01:58:48;20.77;;;18.35;;
56997;SDS011;42890;44.244;22.530;2023-04-15T02:01:15;43.90;;;34.35;;
56997;SDS011;42890;44.244;22.530;2023-04-15T02:03:43;39.85;;;32.35;;
56997;SDS011;42890;44.244;22.530;2023-04-15T02:06:09;39.85;;;28.80;;
56997;SDS011;42890;44.244;22.530;2023-04-15T02:08:36;54.42;;;48.13;;
56997;SDS011;42890;44.244;22.530;2023-04-15T02:11:02;42.90;;;38.20;;
56997;SDS011;42890;44.244;22.530;2023-04-15T02:13:28;19.95;;;17.67;;
56997;SDS011;42890;44.244;22.530;2023-04-15T02:15:55;32.55;;;13.13;;
56997;SDS011;42890;44.244;22.530;2023-04-15T02:18:21;18.55;;;11.88;;
56997;SDS011;42890;44.244;22.530;2023-04-15T02:20:49;14.13;;;12.60;;
56997;SDS011;42890;44.244;22.530;2023-04-15T02:23:16;16.60;;;13.30;;
56997;SDS011;42890;44.244;22.530;2023-04-15T02:25:42;33.90;;;29.35;;
56997;SDS011;42890;44.244;22.530;2023-04-15T02:28:08;41.88;;;27.42;;
56997;SDS011;42890;44.244;22.530;2023-04-15T02:30:34;48.53;;;37.30;;
56997;SDS011;42890;44.244;22.530;2023-04-15T02:33:00;50.25;;;32.67;;
56997;SDS011;42890;44.244;22.530;2023-04-15T02:35:27;74.53;;;47.65;;
56997;SDS011;42890;44.244;22.530;2023-04-15T02:37:53;126.07;;;65.53;;
56997;SDS011;42890;44.244;22.530;2023-04-15T02:40:19;82.90;;;59.92;;
56997;SDS011;42890;44.244;22.530;2023-04-15T02:42:46;104.10;;;62.35;;
56997;SDS011;42890;44.244;22.530;2023-04-15T02:45:12;79.35;;;58.88;;
56997;SDS011;42890;44.244;22.530;2023-04-15T02:47:39;39.17;;;31.80;;
56997;SDS011;42890;44.244;22.530;2023-04-15T02:50:10;11.52;;;10.38;;
56997;SDS011;42890;44.244;22.530;2023-04-15T02:52:39;13.00;;;11.70;;
56997;SDS011;42890;44.244;22.530;2023-04-15T02:55:05;23.73;;;14.18;;
56997;SDS011;42890;44.244;22.530;2023-04-15T02:57:32;23.45;;;19.08;;
56997;SDS011;42890;44.244;22.530;2023-04-15T03:00:01;27.67;;;23.23;;
56997;SDS011;42890;44.244;22.530;2023-04-15T03:02:32;34.22;;;25.88;;
56997;SDS011;42890;44.244;22.530;2023-04-15T03:04:58;28.85;;;24.42;;
56997;SDS011;42890;44.244;22.530;2023-04-15T03:07:24;26.73;;;21.95;;
56997;SDS011;42890;44.244;22.530;2023-04-15T03:09:50;27.10;;;21.80;;
56997;SDS011;42890;44.244;22.530;2023-04-15T03:12:17;28.15;;;21.27;;
56997;SDS011;42890;44.244;22.530;2023-04-15T03:14:43;26.95;;;23.20;;
56997;SDS011;42890;44.244;22.530;2023-04-15T03:17:09;26.42;;;21.60;;
56997;SDS011;42890;44.244;22.530;2023-04-15T03:19:35;26.08;;;21.25;;
56997;SDS011;42890;44.244;22.530;2023-04-15T03:22:01;23.40;;;20.85;;
56997;SDS011;42890;44.244;22.530;2023-04-15T03:24:27;24.30;;;19.73;;
56997;SDS011;42890;44.244;22.530;2023-04-15T03:26:54;17.63;;;15.77;;
56997;SDS011;42890;44.244;22.530;2023-04-15T03:29:21;17.38;;;13.90;;
56997;SDS011;42890;44.244;22.530;2023-04-15T03:31:48;17.10;;;15.40;;
56997;SDS011;42890;44.244;22.530;2023-04-15T03:34:14;18.42;;;16.50;;
56997;SDS011;42890;44.244;22.530;2023-04-15T03:36:40;17.98;;;15.88;;
56997;SDS011;42890;44.244;22.530;2023-04-15T03:39:06;19.23;;;13.93;;
56997;SDS011;42890;44.244;22.530;2023-04-15T03:41:32;21.80;;;17.63;;
56997;SDS011;42890;44.244;22.530;2023-04-15T03:43:58;19.58;;;13.50;;
56997;SDS011;42890;44.244;22.530;2023-04-15T03:46:25;16.75;;;14.05;;
56997;SDS011;42890;44.244;22.530;2023-04-15T03:48:51;16.70;;;14.75;;
56997;SDS011;42890;44.244;22.530;2023-04-15T03:51:17;18.55;;;14.40;;
56997;SDS011;42890;44.244;22.530;2023-04-15T03:53:44;19.85;;;16.30;;
56997;SDS011;42890;44.244;22.530;2023-04-15T03:56:10;17.17;;;15.38;;
56997;SDS011;42890;44.244;22.530;2023-04-15T03:58:36;13.73;;;12.32;;
56997;SDS011;42890;44.244;22.530;2023-04-15T04:01:02;16.90;;;12.68;;
56997;SDS011;42890;44.244;22.530;2023-04-15T04:03:28;17.38;;;14.23;;
56997;SDS011;42890;44.244;22.530;2023-04-15T04:05:54;55.20;;;41.53;;
56997;SDS011;42890;44.244;22.530;2023-04-15T04:08:21;69.20;;;45.58;;
56997;SDS011;42890;44.244;22.530;2023-04-15T04:10:47;90.18;;;54.92;;
56997;SDS011;42890;44.244;22.530;2023-04-15T04:13:13;59.58;;;45.58;;
56997;SDS011;42890;44.244;22.530;2023-04-15T04:15:39;48.55;;;40.03;;
56997;SDS011;42890;44.244;22.530;2023-04-15T04:18:05;39.05;;;29.73;;
56997;SDS011;42890;44.244;22.530;2023-04-15T04:20:32;55.97;;;41.83;;
56997;SDS011;42890;44.244;22.530;2023-04-15T04:22:58;64.65;;;44.53;;
56997;SDS011;42890;44.244;22.530;2023-04-15T04:25:25;83.70;;;53.70;;
56997;SDS011;42890;44.244;22.530;2023-04-15T04:27:51;44.20;;;31.63;;
56997;SDS011;42890;44.244;22.530;2023-04-15T04:30:17;122.70;;;54.65;;
56997;SDS011;42890;44.244;22.530;2023-04-15T04:32:43;137.07;;;49.58;;
56997;SDS011;42890;44.244;22.530;2023-04-15T04:35:09;66.63;;;41.50;;
56997;SDS011;42890;44.244;22.530;2023-04-15T04:37:36;43.13;;;38.20;;
56997;SDS011;42890;44.244;22.530;2023-04-15T04:40:02;40.15;;;33.75;;
56997;SDS011;42890;44.244;22.530;2023-04-15T04:42:28;54.95;;;40.33;;
56997;SDS011;42890;44.244;22.530;2023-04-15T04:44:55;40.58;;;32.10;;
56997;SDS011;42890;44.244;22.530;2023-04-15T04:47:21;30.08;;;26.85;;
56997;SDS011;42890;44.244;22.530;2023-04-15T04:49:48;27.48;;;24.48;;
56997;SDS011;42890;44.244;22.530;2023-04-15T04:52:14;28.88;;;25.70;;
56997;SDS011;42890;44.244;22.530;2023-04-15T04:54:40;33.13;;;27.67;;
56997;SDS011;42890;44.244;22.530;2023-04-15T04:57:06;31.67;;;28.38;;
56997;SDS011;42890;44.244;22.530;2023-04-15T04:59:32;33.85;;;29.48;;
56997;SDS011;42890;44.244;22.530;2023-04-15T05:01:59;33.05;;;27.60;;
56997;SDS011;42890;44.244;22.530;2023-04-15T05:04:25;28.60;;;25.73;;
56997;SDS011;42890;44.244;22.530;2023-04-15T05:06:51;29.10;;;26.00;;
56997;SDS011;42890;44.244;22.530;2023-04-15T05:09:17;34.20;;;29.60;;
56997;SDS011;42890;44.244;22.530;2023-04-15T05:11:43;30.25;;;25.17;;
56997;SDS011;42890;44.244;22.530;2023-04-15T05:14:09;34.13;;;30.60;;
56997;SDS011;42890;44.244;22.530;2023-04-15T05:16:35;33.45;;;29.90;;
56997;SDS011;42890;44.244;22.530;2023-04-15T05:19:02;30.38;;;27.23;;
56997;SDS011;42890;44.244;22.530;2023-04-15T05:21:28;29.52;;;26.35;;
56997;SDS011;42890;44.244;22.530;2023-04-15T05:23:55;31.88;;;27.20;;
56997;SDS011;42890;44.244;22.530;2023-04-15T05:26:21;31.48;;;27.42;;
56997;SDS011;42890;44.244;22.530;2023-04-15T05:28:48;30.05;;;26.95;;
56997;SDS011;42890;44.244;22.530;2023-04-15T05:31:14;29.65;;;24.50;;
56997;SDS011;42890;44.244;22.530;2023-04-15T05:33:41;34.53;;;25.90;;
56997;SDS011;42890;44.244;22.530;2023-04-15T05:36:07;21.63;;;19.30;;
56997;SDS011;42890;44.244;22.530;2023-04-15T05:38:33;18.77;;;16.88;;
56997;SDS011;42890;44.244;22.530;2023-04-15T05:40:59;16.08;;;14.38;;
56997;SDS011;42890;44.244;22.530;2023-04-15T05:43:25;15.77;;;14.27;;
56997;SDS011;42890;44.244;22.530;2023-04-15T05:45:51;13.63;;;12.23;;
56997;SDS011;42890;44.244;22.530;2023-04-15T05:48:18;13.48;;;12.25;;
56997;SDS011;42890;44.244;22.530;2023-04-15T05:50:44;12.73;;;11.43;;
56997;SDS011;42890;44.244;22.530;2023-04-15T05:53:10;12.40;;;11.23;;
56997;SDS011;42890;44.244;22.530;2023-04-15T05:55:36;14.57;;;13.27;;
56997;SDS011;42890;44.244;22.530;2023-04-15T05:58:02;12.55;;;11.35;;
56997;SDS011;42890;44.244;22.530;2023-04-15T06:00:29;13.68;;;11.48;;
56997;SDS011;42890;44.244;22.530;2023-04-15T06:02:56;15.88;;;12.18;;
56997;SDS011;42890;44.244;22.530;2023-04-15T06:05:23;12.25;;;10.65;;
56997;SDS011;42890;44.244;22.530;2023-04-15T06:07:49;9.38;;;8.30;;
56997;SDS011;42890;44.244;22.530;2023-04-15T06:10:15;12.55;;;8.60;;
56997;SDS011;42890;44.244;22.530;2023-04-15T06:12:41;10.98;;;9.05;;
56997;SDS011;42890;44.244;22.530;2023-04-15T06:15:08;11.70;;;10.50;;
56997;SDS011;42890;44.244;22.530;2023-04-15T06:17:35;11.07;;;10.00;;
56997;SDS011;42890;44.244;22.530;2023-04-15T06:20:02;15.40;;;13.88;;
56997;SDS011;42890;44.244;22.530;2023-04-15T06:22:28;12.68;;;9.80;;
56997;SDS011;42890;44.244;22.530;2023-04-15T06:24:54;12.30;;;9.70;;
56997;SDS011;42890;44.244;22.530;2023-04-15T06:27:20;13.13;;;11.73;;
56997;SDS011;42890;44.244;22.530;2023-04-15T06:29:47;22.85;;;20.45;;
56997;SDS011;42890;44.244;22.530;2023-04-15T06:32:13;29.85;;;26.63;;
56997;SDS011;42890;44.244;22.530;2023-04-15T06:34:39;31.23;;;25.70;;
56997;SDS011;42890;44.244;22.530;2023-04-15T06:37:05;24.65;;;20.40;;
56997;SDS011;42890;44.244;22.530;2023-04-15T06:39:34;13.70;;;12.32;;
56997;SDS011;42890;44.244;22.530;2023-04-15T06:42:00;13.25;;;11.77;;
56997;SDS011;42890;44.244;22.530;2023-04-15T06:44:28;13.82;;;12.13;;
56997;SDS011;42890;44.244;22.530;2023-04-15T06:46:54;11.45;;;10.35;;
56997;SDS011;42890;44.244;22.530;2023-04-15T06:49:20;16.52;;;9.82;;
56997;SDS011;42890;44.244;22.530;2023-04-15T06:51:46;10.27;;;8.95;;
56997;SDS011;42890;44.244;22.530;2023-04-15T06:54:13;10.88;;;9.65;;
56997;SDS011;42890;44.244;22.530;2023-04-15T06:56:39;11.32;;;10.07;;
56997;SDS011;42890;44.244;22.530;2023-04-15T06:59:06;9.27;;;8.35;;
56997;SDS011;42890;44.244;22.530;2023-04-15T07:01:32;10.82;;;7.80;;
56997;SDS011;42890;44.244;22.530;2023-04-15T07:03:58;9.38;;;8.52;;
56997;SDS011;42890;44.244;22.530;2023-04-15T07:06:25;9.57;;;7.75;;
56997;SDS011;42890;44.244;22.530;2023-04-15T07:08:51;8.55;;;7.68;;
56997;SDS011;42890;44.244;22.530;2023-04-15T07:11:18;8.35;;;7.00;;
56997;SDS011;42890;44.244;22.530;2023-04-15T07:13:45;7.57;;;6.88;;
56997;SDS011;42890;44.244;22.530;2023-04-15T07:16:11;6.75;;;6.05;;
56997;SDS011;42890;44.244;22.530;2023-04-15T07:18:37;9.27;;;6.10;;
56997;SDS011;42890;44.244;22.530;2023-04-15T07:21:04;6.60;;;5.43;;
56997;SDS011;42890;44.244;22.530;2023-04-15T07:23:30;10.70;;;6.85;;
56997;SDS011;42890;44.244;22.530;2023-04-15T07:25:56;10.48;;;6.65;;
56997;SDS011;42890;44.244;22.530;2023-04-15T07:28:22;7.32;;;6.32;;
56997;SDS011;42890;44.244;22.530;2023-04-15T07:30:48;6.00;;;5.40;;
56997;SDS011;42890;44.244;22.530;2023-04-15T07:33:15;7.10;;;4.40;;
56997;SDS011;42890;44.244;22.530;2023-04-15T07:35:41;4.88;;;3.78;;
56997;SDS011;42890;44.244;22.530;2023-04-15T07:38:07;6.57;;;5.28;;
56997;SDS011;42890;44.244;22.530;2023-04-15T07:40:33;6.55;;;4.55;;
56997;SDS011;42890;44.244;22.530;2023-04-15T07:43:00;4.93;;;3.78;;
56997;SDS011;42890;44.244;22.530;2023-04-15T07:45:26;5.38;;;4.10;;
56997;SDS011;42890;44.244;22.530;2023-04-15T07:47:52;6.78;;;5.70;;
56997;SDS011;42890;44.244;22.530;2023-04-15T07:50:20;5.30;;;4.80;;
56997;SDS011;42890;44.244;22.530;2023-04-15T07:52:47;5.28;;;2.97;;
56997;SDS011;42890;44.244;22.530;2023-04-15T07:55:13;4.13;;;2.85;;
56997;SDS011;42890;44.244;22.530;2023-04-15T07:57:43;1.85;;;1.60;;
56997;SDS011;42890;44.244;22.530;2023-04-15T08:00:09;10.88;;;5.72;;
56997;SDS011;42890;44.244;22.530;2023-04-15T08:02:35;2.40;;;1.20;;
56997;SDS011;42890;44.244;22.530;2023-04-15T08:05:02;2.00;;;0.90;;
56997;SDS011;42890;44.244;22.530;2023-04-15T08:07:28;7.50;;;3.80;;
56997;SDS011;42890;44.244;22.530;2023-04-15T08:09:55;2.97;;;1.30;;
56997;SDS011;42890;44.244;22.530;2023-04-15T08:12:22;1.88;;;1.40;;
56997;SDS011;42890;44.244;22.530;2023-04-15T08:14:49;1.23;;;0.90;;
56997;SDS011;42890;44.244;22.530;2023-04-15T08:17:15;4.18;;;1.70;;
56997;SDS011;42890;44.244;22.530;2023-04-15T08:19:41;3.55;;;1.90;;
56997;SDS011;42890;44.244;22.530;2023-04-15T08:22:07;2.85;;;2.33;;
56997;SDS011;42890;44.244;22.530;2023-04-15T08:24:33;2.97;;;1.52;;
56997;SDS011;42890;44.244;22.530;2023-04-15T08:26:59;1.52;;;1.40;;
56997;SDS011;42890;44.244;22.530;2023-04-15T08:29:28;2.80;;;1.60;;
56997;SDS011;42890;44.244;22.530;2023-04-15T08:31:54;2.50;;;2.10;;
56997;SDS011;42890;44.244;22.530;2023-04-15T08:34:20;1.60;;;1.17;;
56997;SDS011;42890;44.244;22.530;2023-04-15T08:36:47;2.28;;;1.05;;
56997;SDS011;42890;44.244;22.530;2023-04-15T08:39:13;2.33;;;1.58;;
56997;SDS011;42890;44.244;22.530;2023-04-15T08:42:01;3.13;;;2.10;;
56997;SDS011;42890;44.244;22.530;2023-04-15T08:44:31;5.88;;;2.95;;
56997;SDS011;42890;44.244;22.530;2023-04-15T08:46:59;1.65;;;1.55;;
56997;SDS011;42890;44.244;22.530;2023-04-15T08:49:26;2.90;;;1.60;;
56997;SDS011;42890;44.244;22.530;2023-04-15T08:51:53;2.17;;;1.45;;
56997;SDS011;42890;44.244;22.530;2023-04-15T08:54:22;5.45;;;2.40;;
56997;SDS011;42890;44.244;22.530;2023-04-15T08:56:49;3.45;;;2.08;;
56997;SDS011;42890;44.244;22.530;2023-04-15T08:59:15;2.22;;;1.52;;
56997;SDS011;42890;44.244;22.530;2023-04-15T09:01:42;1.42;;;1.33;;
56997;SDS011;42890;44.244;22.530;2023-04-15T09:04:08;2.38;;;1.85;;
56997;SDS011;42890;44.244;22.530;2023-04-15T09:06:35;3.08;;;2.00;;
56997;SDS011;42890;44.244;22.530;2023-04-15T09:09:01;2.88;;;2.05;;
56997;SDS011;42890;44.244;22.530;2023-04-15T09:11:28;1.80;;;1.25;;
56997;SDS011;42890;44.244;22.530;2023-04-15T09:13:55;1.17;;;0.75;;
56997;SDS011;42890;44.244;22.530;2023-04-15T09:16:21;1.20;;;0.98;;
56997;SDS011;42890;44.244;22.530;2023-04-15T09:18:48;8.60;;;4.70;;
56997;SDS011;42890;44.244;22.530;2023-04-15T09:21:14;3.72;;;1.80;;
56997;SDS011;42890;44.244;22.530;2023-04-15T09:23:53;1.80;;;1.45;;
56997;SDS011;42890;44.244;22.530;2023-04-15T09:26:28;1.55;;;1.45;;
56997;SDS011;42890;44.244;22.530;2023-04-15T09:28:58;4.90;;;1.15;;
56997;SDS011;42890;44.244;22.530;2023-04-15T09:31:30;2.55;;;1.70;;
56997;SDS011;42890;44.244;22.530;2023-04-15T09:33:56;3.60;;;2.42;;
56997;SDS011;42890;44.244;22.530;2023-04-15T09:36:22;2.80;;;2.45;;
56997;SDS011;42890;44.244;22.530;2023-04-15T09:38:57;1.08;;;0.98;;
56997;SDS011;42890;44.244;22.530;2023-04-15T09:41:24;1.88;;;1.70;;
56997;SDS011;42890;44.244;22.530;2023-04-15T09:43:51;1.40;;;0.90;;
56997;SDS011;42890;44.244;22.530;2023-04-15T09:46:17;2.10;;;1.20;;
56997;SDS011;42890;44.244;22.530;2023-04-15T09:48:44;3.80;;;2.65;;
56997;SDS011;42890;44.244;22.530;2023-04-15T09:51:10;2.13;;;1.45;;
56997;SDS011;42890;44.244;22.530;2023-04-15T09:53:36;2.63;;;1.70;;
56997;SDS011;42890;44.244;22.530;2023-04-15T09:56:03;3.92;;;2.28;;
56997;SDS011;42890;44.244;22.530;2023-04-15T09:58:32;3.58;;;1.90;;
56997;SDS011;42890;44.244;22.530;2023-04-15T10:00:59;2.78;;;1.77;;
56997;SDS011;42890;44.244;22.530;2023-04-15T10:03:29;2.72;;;1.92;;
56997;SDS011;42890;44.244;22.530;2023-04-15T10:05:57;2.03;;;1.30;;
56997;SDS011;42890;44.244;22.530;2023-04-15T10:08:24;4.47;;;1.42;;
56997;SDS011;42890;44.244;22.530;2023-04-15T10:10:51;2.40;;;1.30;;
56997;SDS011;42890;44.244;22.530;2023-04-15T10:13:18;2.50;;;1.20;;
56997;SDS011;42890;44.244;22.530;2023-04-15T10:15:46;13.13;;;8.35;;
56997;SDS011;42890;44.244;22.530;2023-04-15T10:18:14;4.82;;;3.17;;
56997;SDS011;42890;44.244;22.530;2023-04-15T10:20:42;8.45;;;7.35;;
56997;SDS011;42890;44.244;22.530;2023-04-15T10:23:09;4.50;;;3.08;;
56997;SDS011;42890;44.244;22.530;2023-04-15T10:25:36;3.78;;;2.92;;
56997;SDS011;42890;44.244;22.530;2023-04-15T10:28:02;2.53;;;1.20;;
56997;SDS011;42890;44.244;22.530;2023-04-15T10:30:29;3.25;;;2.80;;
56997;SDS011;42890;44.244;22.530;2023-04-15T10:32:56;6.30;;;4.00;;
56997;SDS011;42890;44.244;22.530;2023-04-15T10:35:23;3.72;;;2.83;;
56997;SDS011;42890;44.244;22.530;2023-04-15T10:37:49;2.10;;;1.90;;
56997;SDS011;42890;44.244;22.530;2023-04-15T10:40:31;3.58;;;2.22;;
56997;SDS011;42890;44.244;22.530;2023-04-15T10:42:58;4.47;;;2.67;;
56997;SDS011;42890;44.244;22.530;2023-04-15T10:45:26;3.53;;;2.67;;
56997;SDS011;42890;44.244;22.530;2023-04-15T10:47:55;4.20;;;2.85;;
56997;SDS011;42890;44.244;22.530;2023-04-15T10:50:24;3.97;;;3.05;;
56997;SDS011;42890;44.244;22.530;2023-04-15T10:52:50;5.75;;;3.63;;
56997;SDS011;42890;44.244;22.530;2023-04-15T10:55:26;8.93;;;4.90;;
56997;SDS011;42890;44.244;22.530;2023-04-15T10:57:59;3.83;;;1.70;;
56997;SDS011;42890;44.244;22.530;2023-04-15T11:00:29;4.68;;;2.88;;
56997;SDS011;42890;44.244;22.530;2023-04-15T11:03:05;4.25;;;3.30;;
56997;SDS011;42890;44.244;22.530;2023-04-15T11:08:04;12.40;;;11.23;;
56997;SDS011;42890;44.244;22.530;2023-04-15T11:12:57;22.45;;;20.27;;
56997;SDS011;42890;44.244;22.530;2023-04-15T11:20:50;12.68;;;11.38;;
56997;SDS011;42890;44.244;22.530;2023-04-15T11:23:22;7.18;;;5.03;;
56997;SDS011;42890;44.244;22.530;2023-04-15T11:25:53;6.63;;;2.70;;
56997;SDS011;42890;44.244;22.530;2023-04-15T11:28:19;3.58;;;2.20;;
56997;SDS011;42890;44.244;22.530;2023-04-15T11:30:45;4.07;;;2.97;;
56997;SDS011;42890;44.244;22.530;2023-04-15T11:33:12;11.85;;;10.65;;
56997;SDS011;42890;44.244;22.530;2023-04-15T11:35:39;4.60;;;2.85;;
56997;SDS011;42890;44.244;22.530;2023-04-15T11:38:10;11.90;;;10.55;;
56997;SDS011;42890;44.244;22.530;2023-04-15T11:40:38;2.13;;;1.00;;
56997;SDS011;42890;44.244;22.530;2023-04-15T11:43:08;2.10;;;1.52;;
56997;SDS011;42890;44.244;22.530;2023-04-15T11:45:34;3.78;;;1.73;;
56997;SDS011;42890;44.244;22.530;2023-04-15T11:48:04;4.55;;;2.35;;
56997;SDS011;42890;44.244;22.530;2023-04-15T11:50:31;6.22;;;5.18;;
56997;SDS011;42890;44.244;22.530;2023-04-15T11:52:58;5.13;;;1.50;;
56997;SDS011;42890;44.244;22.530;2023-04-15T11:55:25;5.65;;;1.90;;
56997;SDS011;42890;44.244;22.530;2023-04-15T12:00:54;2.20;;;1.48;;
56997;SDS011;42890;44.244;22.530;2023-04-15T12:11:20;5.55;;;1.95;;
56997;SDS011;42890;44.244;22.530;2023-04-15T12:13:55;5.32;;;2.67;;
56997;SDS011;42890;44.244;22.530;2023-04-15T12:16:22;5.65;;;1.45;;
56997;SDS011;42890;44.244;22.530;2023-04-15T12:18:52;2.85;;;1.42;;
56997;SDS011;42890;44.244;22.530;2023-04-15T12:21:23;2.78;;;1.70;;
56997;SDS011;42890;44.244;22.530;2023-04-15T12:23:50;5.38;;;2.35;;
56997;SDS011;42890;44.244;22.530;2023-04-15T12:26:17;3.88;;;1.63;;
56997;SDS011;42890;44.244;22.530;2023-04-15T12:28:44;2.20;;;1.92;;
56997;SDS011;42890;44.244;22.530;2023-04-15T12:31:11;4.32;;;1.95;;
56997;SDS011;42890;44.244;22.530;2023-04-15T12:33:37;4.07;;;1.83;;
56997;SDS011;42890;44.244;22.530;2023-04-15T12:36:04;2.05;;;1.33;;
56997;SDS011;42890;44.244;22.530;2023-04-15T12:38:30;7.28;;;5.30;;
56997;SDS011;42890;44.244;22.530;2023-04-15T12:40:57;3.75;;;1.70;;
56997;SDS011;42890;44.244;22.530;2023-04-15T12:43:23;4.18;;;1.20;;
56997;SDS011;42890;44.244;22.530;2023-04-15T12:45:50;5.03;;;2.60;;
56997;SDS011;42890;44.244;22.530;2023-04-15T12:48:16;2.70;;;1.90;;
56997;SDS011;42890;44.244;22.530;2023-04-15T12:50:42;4.38;;;2.63;;
56997;SDS011;42890;44.244;22.530;2023-04-15T12:53:08;6.45;;;5.05;;
56997;SDS011;42890;44.244;22.530;2023-04-15T12:55:34;5.93;;;1.95;;
56997;SDS011;42890;44.244;22.530;2023-04-15T12:58:00;2.22;;;1.20;;
56997;SDS011;42890;44.244;22.530;2023-04-15T13:00:26;7.03;;;4.05;;
56997;SDS011;42890;44.244;22.530;2023-04-15T13:02:53;7.05;;;2.38;;
56997;SDS011;42890;44.244;22.530;2023-04-15T13:05:19;1.52;;;1.42;;
56997;SDS011;42890;44.244;22.530;2023-04-15T13:07:45;4.43;;;1.33;;
56997;SDS011;42890;44.244;22.530;2023-04-15T13:10:11;3.40;;;2.10;;
56997;SDS011;42890;44.244;22.530;2023-04-15T13:12:37;3.45;;;2.00;;
56997;SDS011;42890;44.244;22.530;2023-04-15T13:15:05;5.45;;;3.00;;
56997;SDS011;42890;44.244;22.530;2023-04-15T13:17:34;9.05;;;3.47;;
56997;SDS011;42890;44.244;22.530;2023-04-15T13:20:00;6.75;;;3.83;;
56997;SDS011;42890;44.244;22.530;2023-04-15T13:22:27;7.60;;;3.33;;
56997;SDS011;42890;44.244;22.530;2023-04-15T13:24:53;6.88;;;2.40;;
56997;SDS011;42890;44.244;22.530;2023-04-15T13:27:19;8.15;;;2.25;;
56997;SDS011;42890;44.244;22.530;2023-04-15T13:29:45;5.85;;;3.40;;
56997;SDS011;42890;44.244;22.530;2023-04-15T13:32:11;5.15;;;3.47;;
56997;SDS011;42890;44.244;22.530;2023-04-15T13:34:37;6.90;;;3.72;;
56997;SDS011;42890;44.244;22.530;2023-04-15T13:37:07;3.95;;;3.00;;
56997;SDS011;42890;44.244;22.530;2023-04-15T13:39:33;3.97;;;2.58;;
56997;SDS011;42890;44.244;22.530;2023-04-15T13:41:59;10.73;;;3.90;;
56997;SDS011;42890;44.244;22.530;2023-04-15T13:44:26;3.63;;;2.53;;
56997;SDS011;42890;44.244;22.530;2023-04-15T13:46:52;4.97;;;2.50;;
56997;SDS011;42890;44.244;22.530;2023-04-15T13:49:19;3.92;;;2.25;;
56997;SDS011;42890;44.244;22.530;2023-04-15T13:51:45;3.15;;;1.80;;
56997;SDS011;42890;44.244;22.530;2023-04-15T13:54:11;5.88;;;3.97;;
56997;SDS011;42890;44.244;22.530;2023-04-15T13:56:37;4.15;;;3.15;;
56997;SDS011;42890;44.244;22.530;2023-04-15T13:59:04;4.35;;;2.47;;
56997;SDS011;42890;44.244;22.530;2023-04-15T14:01:30;3.70;;;2.20;;
56997;SDS011;42890;44.244;22.530;2023-04-15T14:03:57;4.65;;;2.70;;
56997;SDS011;42890;44.244;22.530;2023-04-15T14:06:23;4.63;;;3.00;;
56997;SDS011;42890;44.244;22.530;2023-04-15T14:08:51;5.88;;;4.15;;
56997;SDS011;42890;44.244;22.530;2023-04-15T14:11:20;8.02;;;3.03;;
56997;SDS011;42890;44.244;22.530;2023-04-15T14:13:46;4.82;;;3.03;;
56997;SDS011;42890;44.244;22.530;2023-04-15T14:16:15;5.82;;;2.88;;
56997;SDS011;42890;44.244;22.530;2023-04-15T14:18:42;4.40;;;3.30;;
56997;SDS011;42890;44.244;22.530;2023-04-15T14:21:09;7.25;;;3.38;;
56997;SDS011;42890;44.244;22.530;2023-04-15T14:23:35;4.53;;;2.80;;
56997;SDS011;42890;44.244;22.530;2023-04-15T14:26:01;4.40;;;2.40;;
56997;SDS011;42890;44.244;22.530;2023-04-15T14:28:28;5.65;;;2.13;;
56997;SDS011;42890;44.244;22.530;2023-04-15T14:30:54;4.18;;;2.50;;
56997;SDS011;42890;44.244;22.530;2023-04-15T14:33:20;2.80;;;2.42;;
56997;SDS011;42890;44.244;22.530;2023-04-15T14:35:48;4.35;;;3.10;;
56997;SDS011;42890;44.244;22.530;2023-04-15T14:38:14;3.92;;;3.15;;
56997;SDS011;42890;44.244;22.530;2023-04-15T14:40:40;5.50;;;2.97;;